Time;durP1;ratioP1;P1;durP2;ratioP2;P2;SDS_P1;SDS_P2;PMS_P1;PMS_P2;Temp;Humidity;BMP_temperature;BMP_pressure;BME280_temperature;BME280_humidity;BME280_pressure;Samples;Min_cycle;Max_cycle;Signal;HPM_P1;HPM_P2
2021/08/09 00:01:52;;;;;;;0.40;0.40;;;;;;;;;;5088365;28;20055;-50
2021/08/09 00:04:18;;;;;;;0.60;0.60;;;;;;;;;;5087141;28;20024;-53
2021/08/09 00:06:44;;;;;;;0.43;0.43;;;;;;;;;;5087726;28;20023;-54
2021/08/09 00:09:10;;;;;;;0.77;0.55;;;;;;;;;;5086606;28;20103;-54
2021/08/09 00:11:36;;;;;;;0.68;0.45;;;;;;;;;;5085365;28;20428;-54
2021/08/09 00:14:03;;;;;;;0.60;0.52;;;;;;;;;;5087319;28;20035;-52
2021/08/09 00:16:29;;;;;;;0.60;0.60;;;;;;;;;;5086251;28;20580;-53
2021/08/09 00:18:55;;;;;;;1.05;0.60;;;;;;;;;;5085064;28;20055;-55
2021/08/09 00:21:21;;;;;;;1.33;0.70;;;;;;;;;;5086544;28;20028;-54
2021/08/09 00:23:47;;;;;;;0.68;0.55;;;;;;;;;;5085717;28;20039;-55
2021/08/09 00:26:13;;;;;;;0.40;0.40;;;;;;;;;;5084239;28;20028;-55
2021/08/09 00:28:39;;;;;;;0.50;0.50;;;;;;;;;;5084995;28;20100;-53
2021/08/09 00:31:05;;;;;;;1.08;0.70;;;;;;;;;;5085549;28;20024;-53
2021/08/09 00:33:31;;;;;;;0.55;0.40;;;;;;;;;;5085484;28;20089;-54
2021/08/09 00:35:57;;;;;;;0.55;0.50;;;;;;;;;;5085401;28;20024;-53
2021/08/09 00:38:23;;;;;;;1.02;0.57;;;;;;;;;;5085394;28;20274;-54
2021/08/09 00:40:49;;;;;;;0.68;0.50;;;;;;;;;;5086385;28;20082;-53
2021/08/09 00:43:15;;;;;;;0.90;0.60;;;;;;;;;;5066314;28;20032;-50
2021/08/09 00:45:41;;;;;;;0.40;0.40;;;;;;;;;;5085416;28;20024;-54
2021/08/09 00:48:07;;;;;;;0.50;0.50;;;;;;;;;;5085206;28;20028;-54
2021/08/09 00:50:34;;;;;;;1.15;0.68;;;;;;;;;;5084942;28;20024;-53
2021/08/09 00:53:00;;;;;;;0.88;0.50;;;;;;;;;;5085065;28;20506;-53
2021/08/09 00:55:26;;;;;;;0.82;0.60;;;;;;;;;;5085670;28;20563;-53
2021/08/09 00:57:53;;;;;;;0.50;0.45;;;;;;;;;;5085997;28;20033;-53
2021/08/09 01:00:19;;;;;;;0.60;0.60;;;;;;;;;;5084602;28;20035;-54
2021/08/09 01:02:45;;;;;;;0.70;0.60;;;;;;;;;;5084922;28;20067;-53
2021/08/09 01:05:12;;;;;;;0.63;0.55;;;;;;;;;;5083437;28;20043;-52
2021/08/09 01:07:58;;;;;;;0.55;0.55;;;;;;;;;;5085295;28;20512;-53
2021/08/09 01:10:35;;;;;;;0.60;0.50;;;;;;;;;;5042971;28;20060;-54
2021/08/09 01:13:01;;;;;;;0.50;0.50;;;;;;;;;;5084571;28;20032;-53
2021/08/09 01:15:32;;;;;;;0.47;0.45;;;;;;;;;;5084070;28;20032;-51
2021/08/09 01:18:01;;;;;;;0.47;0.47;;;;;;;;;;5084381;28;20055;-53
2021/08/09 01:20:47;;;;;;;0.65;0.57;;;;;;;;;;5084091;28;20089;-54
2021/08/09 01:23:33;;;;;;;0.45;0.45;;;;;;;;;;5073586;28;20128;-53
2021/08/09 01:26:01;;;;;;;2.05;0.60;;;;;;;;;;5084695;28;20028;-54
2021/08/09 01:28:32;;;;;;;0.52;0.50;;;;;;;;;;5066054;28;20035;-55
2021/08/09 01:31:00;;;;;;;0.50;0.50;;;;;;;;;;5066402;28;20031;-55
2021/08/09 01:33:26;;;;;;;0.90;0.68;;;;;;;;;;5084532;28;20032;-54
2021/08/09 01:35:54;;;;;;;1.90;0.80;;;;;;;;;;5085566;28;20510;-53
2021/08/09 01:38:21;;;;;;;0.45;0.45;;;;;;;;;;5084422;28;20432;-53
2021/08/09 01:40:48;;;;;;;0.90;0.70;;;;;;;;;;5085040;28;20503;-55
2021/08/09 01:43:16;;;;;;;0.50;0.50;;;;;;;;;;5084419;28;20118;-54
2021/08/09 01:45:42;;;;;;;0.70;0.60;;;;;;;;;;5084790;28;20089;-53
2021/08/09 01:48:09;;;;;;;0.80;0.50;;;;;;;;;;5083620;28;20059;-55
2021/08/09 01:50:36;;;;;;;0.80;0.60;;;;;;;;;;5084578;28;20032;-53
2021/08/09 01:53:02;;;;;;;0.75;0.60;;;;;;;;;;5084494;28;20537;-55
2021/08/09 01:55:28;;;;;;;0.60;0.60;;;;;;;;;;5085235;28;20070;-54
2021/08/09 01:57:54;;;;;;;1.02;0.65;;;;;;;;;;5084392;28;20032;-54
2021/08/09 02:00:21;;;;;;;0.60;0.60;;;;;;;;;;5083837;28;20452;-54
2021/08/09 02:02:48;;;;;;;0.50;0.50;;;;;;;;;;5084699;28;20055;-52
2021/08/09 02:05:15;;;;;;;0.82;0.55;;;;;;;;;;5084330;28;20684;-54
2021/08/09 02:07:48;;;;;;;0.60;0.60;;;;;;;;;;5084626;28;20074;-54
2021/08/09 02:10:18;;;;;;;0.50;0.50;;;;;;;;;;5084381;28;20559;-55
2021/08/09 02:12:50;;;;;;;0.68;0.68;;;;;;;;;;5084451;28;20371;-54
2021/08/09 02:15:17;;;;;;;0.63;0.40;;;;;;;;;;5083503;28;20031;-54
2021/08/09 02:17:47;;;;;;;0.40;0.40;;;;;;;;;;5083799;28;20081;-54
2021/08/09 02:20:27;;;;;;;1.13;0.70;;;;;;;;;;5083098;28;20066;-54
2021/08/09 02:22:57;;;;;;;0.60;0.57;;;;;;;;;;5084765;28;20099;-55
2021/08/09 02:25:26;;;;;;;0.60;0.60;;;;;;;;;;5084935;28;20508;-55
2021/08/09 02:27:58;;;;;;;1.65;0.68;;;;;;;;;;5085236;28;20065;-53
2021/08/09 02:30:25;;;;;;;0.90;0.80;;;;;;;;;;5084210;28;20508;-54
2021/08/09 02:32:53;;;;;;;0.73;0.50;;;;;;;;;;5084679;28;20107;-54
2021/08/09 02:35:20;;;;;;;0.63;0.60;;;;;;;;;;5086517;28;20028;-55
2021/08/09 02:37:47;;;;;;;0.63;0.63;;;;;;;;;;5087973;28;20031;-54
2021/08/09 02:40:13;;;;;;;0.63;0.63;;;;;;;;;;5087566;28;20028;-53
2021/08/09 02:42:40;;;;;;;0.40;0.40;;;;;;;;;;5086777;28;20028;-55
2021/08/09 02:45:06;;;;;;;1.00;0.52;;;;;;;;;;5087608;28;20035;-54
2021/08/09 02:47:34;;;;;;;0.65;0.60;;;;;;;;;;5087386;28;20024;-53
2021/08/09 02:50:01;;;;;;;1.73;0.80;;;;;;;;;;5087419;28;20028;-52
2021/08/09 02:52:28;;;;;;;0.90;0.70;;;;;;;;;;5085710;28;20081;-53
2021/08/09 02:54:54;;;;;;;0.73;0.60;;;;;;;;;;5087998;28;20043;-54
2021/08/09 02:57:23;;;;;;;0.75;0.60;;;;;;;;;;5087817;28;20027;-52
2021/08/09 02:59:49;;;;;;;0.50;0.50;;;;;;;;;;5086163;28;20119;-55
2021/08/09 03:02:16;;;;;;;1.15;0.57;;;;;;;;;;5086144;28;20120;-54
2021/08/09 03:04:44;;;;;;;0.73;0.60;;;;;;;;;;5087253;28;20485;-51
2021/08/09 03:07:10;;;;;;;1.08;0.80;;;;;;;;;;5087248;28;20020;-53
2021/08/09 03:09:37;;;;;;;1.15;0.80;;;;;;;;;;5087376;28;20021;-55
2021/08/09 03:12:03;;;;;;;1.38;0.70;;;;;;;;;;5085134;28;20020;-52
2021/08/09 03:14:31;;;;;;;1.23;0.80;;;;;;;;;;5086996;28;20035;-54
2021/08/09 03:16:58;;;;;;;1.33;0.77;;;;;;;;;;5087015;28;20024;-55
2021/08/09 03:19:25;;;;;;;0.80;0.80;;;;;;;;;;5087494;28;20036;-54
2021/08/09 03:21:58;;;;;;;0.80;0.70;;;;;;;;;;5086038;28;20030;-55
2021/08/09 03:24:24;;;;;;;2.92;0.90;;;;;;;;;;5087477;28;20027;-55
2021/08/09 03:26:51;;;;;;;1.00;0.70;;;;;;;;;;5087143;28;20030;-54
2021/08/09 03:29:17;;;;;;;0.77;0.63;;;;;;;;;;5086697;28;20074;-50
2021/08/09 03:31:44;;;;;;;1.48;0.80;;;;;;;;;;5085194;28;20494;-53
2021/08/09 03:34:10;;;;;;;0.60;0.60;;;;;;;;;;5086549;28;20028;-52
2021/08/09 03:36:41;;;;;;;1.23;0.70;;;;;;;;;;5086727;28;20107;-54
2021/08/09 03:39:07;;;;;;;1.20;0.50;;;;;;;;;;5086500;28;20035;-54
2021/08/09 03:41:33;;;;;;;0.98;0.80;;;;;;;;;;5084820;28;20028;-54
2021/08/09 03:43:59;;;;;;;1.23;0.77;;;;;;;;;;5086086;28;20031;-54
2021/08/09 03:46:25;;;;;;;2.05;0.90;;;;;;;;;;5086656;28;20030;-54
2021/08/09 03:48:52;;;;;;;0.98;0.70;;;;;;;;;;5067810;28;20507;-54
2021/08/09 03:51:18;;;;;;;0.73;0.70;;;;;;;;;;5086243;28;20027;-54
2021/08/09 03:53:44;;;;;;;0.80;0.70;;;;;;;;;;5084488;28;20036;-54
2021/08/09 03:56:10;;;;;;;1.27;0.65;;;;;;;;;;5086039;28;20040;-52
2021/08/09 03:58:36;;;;;;;1.02;0.77;;;;;;;;;;5086246;28;20024;-52
2021/08/09 04:01:03;;;;;;;0.80;0.80;;;;;;;;;;5085045;28;20032;-50
2021/08/09 04:03:30;;;;;;;0.68;0.63;;;;;;;;;;5085882;28;20477;-52
2021/08/09 04:05:56;;;;;;;1.10;0.70;;;;;;;;;;5086728;28;20028;-55
2021/08/09 04:08:22;;;;;;;0.70;0.60;;;;;;;;;;5086256;28;20020;-54
2021/08/09 04:10:48;;;;;;;0.88;0.77;;;;;;;;;;5085073;28;20024;-54
2021/08/09 04:13:14;;;;;;;0.60;0.60;;;;;;;;;;5085498;28;20456;-54
2021/08/09 04:15:40;;;;;;;0.65;0.65;;;;;;;;;;5085760;28;20032;-54
2021/08/09 04:18:06;;;;;;;0.75;0.63;;;;;;;;;;5085002;28;20028;-55
2021/08/09 04:20:32;;;;;;;1.20;0.73;;;;;;;;;;5085693;28;20089;-54
2021/08/09 04:22:58;;;;;;;0.82;0.70;;;;;;;;;;5084923;28;20035;-54
2021/08/09 04:25:27;;;;;;;0.60;0.60;;;;;;;;;;5085323;28;20020;-53
2021/08/09 04:27:54;;;;;;;1.70;0.77;;;;;;;;;;5086416;28;20028;-53
2021/08/09 04:30:20;;;;;;;0.75;0.68;;;;;;;;;;5084770;28;20407;-50
2021/08/09 04:32:46;;;;;;;1.38;0.70;;;;;;;;;;5084559;28;20040;-51
2021/08/09 04:35:14;;;;;;;0.60;0.60;;;;;;;;;;5085504;28;20020;-54
2021/08/09 04:37:41;;;;;;;0.70;0.70;;;;;;;;;;5085566;28;20024;-54
2021/08/09 04:40:08;;;;;;;0.60;0.60;;;;;;;;;;5084462;28;20043;-55
2021/08/09 04:42:34;;;;;;;1.52;0.98;;;;;;;;;;5084556;28;20024;-52
2021/08/09 04:45:01;;;;;;;0.63;0.63;;;;;;;;;;5067002;28;20590;-55
2021/08/09 04:47:27;;;;;;;0.65;0.63;;;;;;;;;;5085612;28;20503;-53
2021/08/09 04:49:53;;;;;;;0.98;0.70;;;;;;;;;;5084825;28;20032;-53
2021/08/09 04:52:19;;;;;;;1.05;0.85;;;;;;;;;;5083716;28;20065;-49
2021/08/09 04:54:45;;;;;;;0.70;0.70;;;;;;;;;;5085792;28;20030;-54
2021/08/09 04:57:11;;;;;;;1.10;0.77;;;;;;;;;;5084131;28;20125;-53
2021/08/09 04:59:37;;;;;;;0.93;0.75;;;;;;;;;;5084864;28;20103;-51
2021/08/09 05:02:03;;;;;;;1.33;0.95;;;;;;;;;;5084016;28;20115;-53
2021/08/09 05:04:30;;;;;;;1.13;1.00;;;;;;;;;;5084344;28;20458;-54
2021/08/09 05:06:56;;;;;;;1.95;0.90;;;;;;;;;;5086091;28;20502;-53
2021/08/09 05:09:22;;;;;;;1.08;0.90;;;;;;;;;;5086372;28;20039;-53
2021/08/09 05:11:48;;;;;;;1.25;0.80;;;;;;;;;;5070763;28;20028;-54
2021/08/09 05:14:14;;;;;;;1.00;0.80;;;;;;;;;;5048683;28;20671;-54
2021/08/09 05:16:41;;;;;;;1.52;1.02;;;;;;;;;;5081802;28;20036;-52
2021/08/09 05:19:08;;;;;;;2.85;0.80;;;;;;;;;;5086635;28;20040;-54
2021/08/09 05:21:35;;;;;;;0.85;0.73;;;;;;;;;;5087167;28;20119;-55
2021/08/09 05:24:02;;;;;;;3.42;1.25;;;;;;;;;;5085363;28;20101;-55
2021/08/09 05:26:29;;;;;;;1.38;1.02;;;;;;;;;;5085687;28;20020;-54
2021/08/09 05:28:55;;;;;;;1.42;0.90;;;;;;;;;;5086521;28;20566;-54
2021/08/09 05:31:21;;;;;;;1.52;0.95;;;;;;;;;;5085157;28;20032;-54
2021/08/09 05:33:49;;;;;;;1.90;0.82;;;;;;;;;;5086121;28;20040;-54
2021/08/09 05:36:15;;;;;;;1.52;0.82;;;;;;;;;;5085024;28;20068;-53
2021/08/09 05:38:41;;;;;;;2.88;0.75;;;;;;;;;;5086246;28;20036;-52
2021/08/09 05:41:08;;;;;;;0.80;0.70;;;;;;;;;;5086548;28;20024;-53
2021/08/09 05:43:34;;;;;;;0.70;0.70;;;;;;;;;;5086314;28;20103;-52
2021/08/09 05:46:00;;;;;;;0.57;0.57;;;;;;;;;;5084823;28;20520;-53
2021/08/09 05:48:26;;;;;;;0.60;0.60;;;;;;;;;;5086115;28;20607;-53
2021/08/09 05:50:52;;;;;;;1.42;0.70;;;;;;;;;;5086385;28;20398;-53
2021/08/09 05:53:18;;;;;;;1.38;0.60;;;;;;;;;;5085116;28;20586;-54
2021/08/09 05:55:44;;;;;;;0.93;0.70;;;;;;;;;;5083688;28;20035;-53
2021/08/09 05:58:10;;;;;;;0.70;0.60;;;;;;;;;;5084152;28;20024;-53
2021/08/09 06:00:36;;;;;;;0.70;0.70;;;;;;;;;;5084968;28;20028;-54
2021/08/09 06:03:03;;;;;;;0.80;0.63;;;;;;;;;;5084040;28;20028;-53
2021/08/09 06:05:29;;;;;;;0.70;0.70;;;;;;;;;;5083887;28;20599;-52
2021/08/09 06:07:55;;;;;;;0.70;0.70;;;;;;;;;;5084285;28;20051;-54
2021/08/09 06:10:22;;;;;;;1.02;0.73;;;;;;;;;;5086955;28;20406;-53
2021/08/09 06:12:48;;;;;;;0.63;0.63;;;;;;;;;;5088129;28;20047;-53
2021/08/09 06:15:14;;;;;;;0.65;0.65;;;;;;;;;;5086392;28;20402;-50
2021/08/09 06:17:41;;;;;;;1.50;0.93;;;;;;;;;;5087635;28;20035;-53
2021/08/09 06:20:07;;;;;;;0.70;0.70;;;;;;;;;;5088451;28;20076;-53
2021/08/09 06:22:33;;;;;;;0.98;0.75;;;;;;;;;;5088187;28;20422;-55
2021/08/09 06:25:00;;;;;;;1.00;0.63;;;;;;;;;;5086678;28;20545;-54
2021/08/09 06:27:26;;;;;;;1.67;0.90;;;;;;;;;;5087927;28;20028;-53
2021/08/09 06:29:52;;;;;;;1.10;0.88;;;;;;;;;;5069659;28;20030;-54
2021/08/09 06:32:18;;;;;;;2.38;1.00;;;;;;;;;;5088035;28;20031;-54
2021/08/09 06:34:44;;;;;;;1.60;0.90;;;;;;;;;;5068523;28;20032;-55
2021/08/09 06:37:10;;;;;;;1.38;0.90;;;;;;;;;;5086769;28;20032;-54
2021/08/09 06:39:36;;;;;;;3.45;0.90;;;;;;;;;;5088307;28;20391;-54
2021/08/09 06:42:03;;;;;;;0.85;0.70;;;;;;;;;;5087079;28;20036;-54
2021/08/09 06:44:33;;;;;;;0.93;0.73;;;;;;;;;;5086477;28;20028;-54
2021/08/09 06:47:00;;;;;;;1.10;0.75;;;;;;;;;;5086316;28;20294;-55
2021/08/09 06:49:27;;;;;;;2.05;1.00;;;;;;;;;;5085315;28;20028;-55
2021/08/09 06:51:53;;;;;;;0.50;0.50;;;;;;;;;;5087974;28;20458;-54
2021/08/09 06:54:24;;;;;;;0.88;0.68;;;;;;;;;;5086060;28;20028;-54
2021/08/09 06:56:51;;;;;;;1.95;0.50;;;;;;;;;;5085977;28;20028;-55
2021/08/09 06:59:18;;;;;;;0.68;0.50;;;;;;;;;;5087038;28;20057;-53
2021/08/09 07:01:44;;;;;;;0.73;0.65;;;;;;;;;;5085499;28;20039;-51
2021/08/09 07:04:11;;;;;;;1.60;0.88;;;;;;;;;;5087515;28;20073;-51
2021/08/09 07:06:37;;;;;;;0.55;0.55;;;;;;;;;;5082226;28;20013;-50
2021/08/09 07:09:04;;;;;;;0.52;0.50;;;;;;;;;;5080499;28;20028;-52
2021/08/09 07:11:30;;;;;;;1.27;0.60;;;;;;;;;;5083020;28;20055;-54
2021/08/09 07:13:56;;;;;;;0.65;0.65;;;;;;;;;;5087893;28;20035;-55
2021/08/09 07:16:26;;;;;;;0.60;0.60;;;;;;;;;;5087225;28;20032;-52
2021/08/09 07:18:52;;;;;;;0.82;0.63;;;;;;;;;;5088426;28;20039;-55
2021/08/09 07:21:18;;;;;;;1.02;0.60;;;;;;;;;;5084924;28;20079;-51
2021/08/09 07:23:44;;;;;;;0.57;0.40;;;;;;;;;;5088527;28;20099;-54
2021/08/09 07:26:10;;;;;;;1.98;0.60;;;;;;;;;;5088981;28;20028;-54
2021/08/09 07:28:37;;;;;;;0.60;0.60;;;;;;;;;;5088351;28;20081;-55
2021/08/09 07:31:03;;;;;;;0.60;0.60;;;;;;;;;;5087277;28;20107;-53
2021/08/09 07:33:29;;;;;;;0.90;0.70;;;;;;;;;;5088377;28;20545;-54
2021/08/09 07:35:55;;;;;;;0.70;0.68;;;;;;;;;;5086301;28;20529;-54
2021/08/09 07:38:21;;;;;;;0.70;0.57;;;;;;;;;;5088188;28;20240;-54
2021/08/09 07:40:47;;;;;;;0.70;0.60;;;;;;;;;;5087479;28;20440;-54
2021/08/09 07:43:13;;;;;;;0.50;0.50;;;;;;;;;;5066713;28;20024;-54
2021/08/09 07:45:39;;;;;;;0.60;0.60;;;;;;;;;;5079333;28;20073;-53
2021/08/09 07:48:06;;;;;;;2.20;0.70;;;;;;;;;;5075555;28;20494;-53
2021/08/09 07:50:32;;;;;;;0.60;0.60;;;;;;;;;;5082710;28;20035;-54
2021/08/09 07:52:58;;;;;;;1.23;0.63;;;;;;;;;;5084632;28;20437;-54
2021/08/09 07:55:25;;;;;;;0.60;0.60;;;;;;;;;;5085945;28;20028;-53
2021/08/09 07:57:52;;;;;;;0.85;0.73;;;;;;;;;;5087388;28;20112;-56
2021/08/09 08:00:18;;;;;;;1.58;0.70;;;;;;;;;;5081894;28;20065;-53
2021/08/09 08:02:44;;;;;;;1.02;0.75;;;;;;;;;;5082886;28;20024;-55
2021/08/09 08:05:11;;;;;;;0.65;0.60;;;;;;;;;;5086406;28;20026;-55
2021/08/09 08:07:37;;;;;;;1.88;0.57;;;;;;;;;;5083191;28;20494;-53
2021/08/09 08:10:03;;;;;;;0.63;0.60;;;;;;;;;;5081698;28;20027;-54
2021/08/09 08:12:29;;;;;;;1.45;0.70;;;;;;;;;;5086091;28;20024;-54
2021/08/09 08:14:55;;;;;;;1.20;0.68;;;;;;;;;;5085036;28;20043;-55
2021/08/09 08:17:23;;;;;;;1.17;0.60;;;;;;;;;;5081548;28;20038;-56
2021/08/09 08:19:49;;;;;;;0.50;0.50;;;;;;;;;;5085965;28;20032;-55
2021/08/09 08:22:15;;;;;;;0.80;0.60;;;;;;;;;;5068600;28;20024;-55
2021/08/09 08:24:41;;;;;;;0.52;0.52;;;;;;;;;;5083872;28;20035;-55
2021/08/09 08:27:07;;;;;;;0.50;0.50;;;;;;;;;;5070281;28;20028;-55
2021/08/09 08:29:33;;;;;;;0.40;0.40;;;;;;;;;;5069406;28;20017;-55
2021/08/09 08:31:59;;;;;;;0.43;0.40;;;;;;;;;;5085031;28;20032;-55
2021/08/09 08:34:25;;;;;;;0.47;0.40;;;;;;;;;;5085136;28;20052;-56
2021/08/09 08:36:51;;;;;;;0.43;0.40;;;;;;;;;;5079758;28;20059;-56
2021/08/09 08:39:18;;;;;;;0.40;0.40;;;;;;;;;;5095541;28;20494;-55
2021/08/09 08:41:45;;;;;;;1.27;0.50;;;;;;;;;;5066405;28;20047;-55
2021/08/09 08:44:18;;;;;;;0.40;0.40;;;;;;;;;;5066081;28;20060;-55
2021/08/09 08:46:45;;;;;;;1.83;0.60;;;;;;;;;;5086547;28;20020;-56
2021/08/09 08:49:14;;;;;;;0.65;0.45;;;;;;;;;;5083621;28;20106;-55
2021/08/09 08:51:44;;;;;;;0.40;0.40;;;;;;;;;;5078682;28;20023;-56
2021/08/09 08:54:12;;;;;;;0.30;0.30;;;;;;;;;;5085328;28;20039;-55
2021/08/09 08:56:40;;;;;;;0.70;0.63;;;;;;;;;;5086588;28;20441;-56
2021/08/09 08:59:07;;;;;;;0.40;0.40;;;;;;;;;;5082943;28;20115;-56
2021/08/09 09:01:34;;;;;;;1.50;0.60;;;;;;;;;;5082797;28;20460;-55
2021/08/09 09:04:00;;;;;;;0.40;0.40;;;;;;;;;;5071401;28;20097;-56
2021/08/09 09:06:27;;;;;;;0.40;0.40;;;;;;;;;;5086233;28;20109;-55
2021/08/09 09:08:53;;;;;;;0.45;0.45;;;;;;;;;;5084920;28;20609;-55
2021/08/09 09:11:22;;;;;;;0.40;0.40;;;;;;;;;;5085388;28;20020;-56
2021/08/09 09:13:55;;;;;;;1.00;0.50;;;;;;;;;;5084198;28;20051;-55
2021/08/09 09:16:22;;;;;;;0.68;0.45;;;;;;;;;;5084147;28;20032;-56
2021/08/09 09:18:53;;;;;;;0.30;0.30;;;;;;;;;;5085755;28;20046;-56
2021/08/09 09:21:25;;;;;;;0.45;0.45;;;;;;;;;;5086192;28;20020;-56
2021/08/09 09:23:52;;;;;;;0.63;0.43;;;;;;;;;;5083845;28;20024;-56
2021/08/09 09:26:24;;;;;;;0.30;0.30;;;;;;;;;;5084354;28;20020;-56
2021/08/09 09:28:52;;;;;;;0.40;0.40;;;;;;;;;;5085393;28;20024;-55
2021/08/09 09:31:27;;;;;;;0.70;0.50;;;;;;;;;;5085756;28;20032;-55
2021/08/09 09:33:54;;;;;;;0.50;0.50;;;;;;;;;;5085477;28;20055;-56
2021/08/09 09:36:21;;;;;;;0.40;0.40;;;;;;;;;;5081543;28;20398;-56
2021/08/09 09:38:50;;;;;;;0.40;0.40;;;;;;;;;;5084647;28;20032;-57
2021/08/09 09:41:17;;;;;;;1.17;0.52;;;;;;;;;;5084859;28;20092;-55
2021/08/09 09:43:43;;;;;;;0.82;0.50;;;;;;;;;;5087708;28;20036;-55
2021/08/09 09:46:23;;;;;;;0.43;0.40;;;;;;;;;;5089137;28;20028;-55
2021/08/09 09:48:49;;;;;;;0.45;0.45;;;;;;;;;;5087167;28;20070;-55
2021/08/09 09:51:17;;;;;;;0.50;0.50;;;;;;;;;;5082342;28;20112;-55
2021/08/09 09:53:45;;;;;;;0.40;0.40;;;;;;;;;;5088777;28;20441;-56
2021/08/09 09:56:11;;;;;;;0.45;0.43;;;;;;;;;;5086031;28;20204;-56
2021/08/09 09:58:38;;;;;;;0.55;0.50;;;;;;;;;;5065914;28;20530;-56
2021/08/09 10:01:06;;;;;;;0.50;0.40;;;;;;;;;;5087561;28;20041;-56
2021/08/09 10:03:33;;;;;;;0.30;0.30;;;;;;;;;;5087354;28;20502;-55
2021/08/09 10:06:00;;;;;;;1.35;0.50;;;;;;;;;;5086074;28;20017;-56
2021/08/09 10:08:28;;;;;;;0.63;0.50;;;;;;;;;;5085904;28;20032;-56
2021/08/09 10:10:54;;;;;;;0.40;0.40;;;;;;;;;;5088352;28;20017;-56
2021/08/09 10:13:21;;;;;;;0.38;0.38;;;;;;;;;;5085722;28;20032;-54
2021/08/09 10:15:55;;;;;;;0.50;0.50;;;;;;;;;;5091043;28;20026;-54
2021/08/09 10:18:26;;;;;;;0.70;0.50;;;;;;;;;;5076319;28;20036;-54
2021/08/09 10:20:53;;;;;;;0.60;0.50;;;;;;;;;;5079897;28;20031;-56
2021/08/09 10:23:36;;;;;;;0.40;0.40;;;;;;;;;;5095389;28;20670;-55
2021/08/09 10:26:03;;;;;;;0.32;0.30;;;;;;;;;;5088956;28;20085;-55
2021/08/09 10:34:38;;;;;;;0.40;0.40;;;;;;;;;;5084326;28;20042;-54
2021/08/09 10:37:09;;;;;;;0.65;0.40;;;;;;;;;;5084579;28;20027;-56
2021/08/09 10:39:49;;;;;;;0.40;0.40;;;;;;;;;;5090557;28;20024;-56
2021/08/09 10:42:36;;;;;;;0.35;0.35;;;;;;;;;;5089163;28;20020;-55
2021/08/09 10:45:03;;;;;;;0.50;0.50;;;;;;;;;;5089422;28;20039;-56
2021/08/09 10:47:47;;;;;;;0.70;0.60;;;;;;;;;;5089914;28;20024;-54
2021/08/09 10:50:36;;;;;;;0.40;0.40;;;;;;;;;;5085200;28;20036;-55
2021/08/09 10:53:02;;;;;;;0.63;0.40;;;;;;;;;;5080636;28;20414;-56
2021/08/09 10:55:29;;;;;;;0.30;0.30;;;;;;;;;;5086280;28;20380;-56
2021/08/09 10:57:55;;;;;;;0.40;0.40;;;;;;;;;;5086971;28;20032;-56
2021/08/09 11:00:51;;;;;;;0.60;0.50;;;;;;;;;;5090576;28;20059;-56
2021/08/09 11:03:18;;;;;;;0.60;0.60;;;;;;;;;;5071172;28;20051;-55
2021/08/09 11:05:45;;;;;;;0.85;0.75;;;;;;;;;;5088009;28;20012;-56
2021/08/09 11:08:20;;;;;;;0.73;0.60;;;;;;;;;;5089258;28;20016;-56
2021/08/09 11:10:58;;;;;;;1.00;0.63;;;;;;;;;;5071310;28;20031;-55
2021/08/09 11:13:25;;;;;;;1.27;0.50;;;;;;;;;;5070785;28;20545;-56
2021/08/09 11:15:57;;;;;;;0.75;0.60;;;;;;;;;;5089131;28;20446;-54
2021/08/09 11:18:23;;;;;;;0.40;0.40;;;;;;;;;;5069640;28;20078;-57
2021/08/09 11:21:01;;;;;;;0.55;0.40;;;;;;;;;;5071246;28;20085;-57
2021/08/09 11:23:27;;;;;;;0.43;0.30;;;;;;;;;;5085611;28;20115;-57
2021/08/09 11:25:53;;;;;;;0.40;0.40;;;;;;;;;;5069299;28;20111;-57
2021/08/09 11:28:24;;;;;;;0.40;0.40;;;;;;;;;;5088202;28;20028;-57
2021/08/09 11:31:00;;;;;;;0.50;0.50;;;;;;;;;;5089761;28;20036;-57
2021/08/09 11:33:30;;;;;;;0.40;0.40;;;;;;;;;;5088059;28;20050;-57
2021/08/09 11:36:17;;;;;;;0.40;0.40;;;;;;;;;;5087774;28;20075;-57
2021/08/09 11:38:48;;;;;;;0.73;0.50;;;;;;;;;;5077247;28;20458;-57
2021/08/09 11:41:16;;;;;;;0.43;0.43;;;;;;;;;;5069423;28;20036;-57
2021/08/09 11:43:43;;;;;;;0.40;0.40;;;;;;;;;;5068940;28;20032;-57
2021/08/09 11:46:10;;;;;;;0.40;0.40;;;;;;;;;;5069354;28;20028;-57
2021/08/09 11:48:38;;;;;;;0.52;0.50;;;;;;;;;;5086679;28;20448;-56
2021/08/09 11:51:05;;;;;;;0.30;0.30;;;;;;;;;;5089400;28;20099;-57
2021/08/09 11:53:31;;;;;;;0.50;0.50;;;;;;;;;;5089305;28;20079;-57
2021/08/09 11:56:07;;;;;;;0.52;0.50;;;;;;;;;;5088781;28;20040;-57
2021/08/09 11:58:33;;;;;;;1.17;0.60;;;;;;;;;;5069115;28;20048;-57
2021/08/09 12:00:59;;;;;;;0.63;0.40;;;;;;;;;;5076150;28;20035;-57
2021/08/09 12:03:28;;;;;;;0.40;0.40;;;;;;;;;;5070509;28;20048;-57
2021/08/09 12:06:14;;;;;;;0.30;0.30;;;;;;;;;;5089129;28;20028;-56
2021/08/09 12:08:54;;;;;;;0.52;0.52;;;;;;;;;;5088317;28;20032;-56
2021/08/09 12:11:24;;;;;;;0.40;0.40;;;;;;;;;;5070323;28;20081;-57
2021/08/09 12:14:01;;;;;;;0.35;0.35;;;;;;;;;;5070508;28;20554;-56
2021/08/09 12:16:27;;;;;;;0.40;0.40;;;;;;;;;;5088810;28;20073;-56
2021/08/09 12:18:54;;;;;;;0.40;0.40;;;;;;;;;;5069955;28;20394;-56
2021/08/09 12:21:21;;;;;;;0.65;0.60;;;;;;;;;;5086863;28;20036;-57
2021/08/09 12:23:58;;;;;;;0.82;0.47;;;;;;;;;;5087013;28;20036;-57
2021/08/09 12:26:25;;;;;;;0.40;0.40;;;;;;;;;;5088802;28;20460;-56
2021/08/09 12:28:52;;;;;;;0.40;0.40;;;;;;;;;;5087594;28;20028;-57
2021/08/09 12:31:35;;;;;;;0.50;0.50;;;;;;;;;;5086773;28;20613;-57
2021/08/09 12:34:02;;;;;;;0.40;0.40;;;;;;;;;;5070430;28;20040;-57
2021/08/09 12:36:28;;;;;;;0.40;0.40;;;;;;;;;;5072008;28;20138;-58
2021/08/09 12:38:54;;;;;;;0.30;0.30;;;;;;;;;;5085661;28;20028;-57
2021/08/09 12:41:28;;;;;;;0.50;0.50;;;;;;;;;;5068357;28;20100;-57
2021/08/09 12:43:55;;;;;;;0.55;0.50;;;;;;;;;;5073587;28;20119;-57
2021/08/09 12:46:22;;;;;;;0.40;0.40;;;;;;;;;;5078977;28;20062;-57
2021/08/09 12:48:49;;;;;;;1.10;0.45;;;;;;;;;;5068241;28;20038;-56
2021/08/09 12:51:16;;;;;;;0.45;0.45;;;;;;;;;;5067517;28;20027;-56
2021/08/09 12:53:42;;;;;;;0.35;0.35;;;;;;;;;;5087049;28;20074;-57
2021/08/09 12:56:08;;;;;;;0.40;0.40;;;;;;;;;;5086937;28;20023;-57
2021/08/09 12:58:35;;;;;;;0.30;0.30;;;;;;;;;;5069460;28;20509;-55
2021/08/09 13:01:01;;;;;;;1.33;0.60;;;;;;;;;;5088349;28;20107;-56
2021/08/09 13:03:28;;;;;;;0.30;0.30;;;;;;;;;;5088176;28;20485;-57
2021/08/09 13:05:54;;;;;;;0.40;0.40;;;;;;;;;;5074670;28;20115;-57
2021/08/09 13:08:21;;;;;;;0.45;0.35;;;;;;;;;;5055786;28;20512;-56
2021/08/09 13:10:47;;;;;;;0.82;0.50;;;;;;;;;;5087070;28;20024;-57
2021/08/09 13:13:13;;;;;;;0.40;0.40;;;;;;;;;;5069626;28;20567;-56
2021/08/09 13:15:39;;;;;;;0.40;0.40;;;;;;;;;;5067885;28;20017;-56
2021/08/09 13:18:05;;;;;;;0.85;0.50;;;;;;;;;;5055746;28;20510;-57
2021/08/09 13:20:31;;;;;;;0.30;0.30;;;;;;;;;;5069162;28;20024;-57
2021/08/09 13:22:57;;;;;;;0.68;0.60;;;;;;;;;;5056379;28;20051;-57
2021/08/09 13:25:24;;;;;;;0.40;0.40;;;;;;;;;;5067510;28;20021;-57
2021/08/09 13:27:50;;;;;;;0.30;0.30;;;;;;;;;;5071810;28;20036;-57
2021/08/09 13:30:17;;;;;;;0.40;0.40;;;;;;;;;;5082999;28;20367;-57
2021/08/09 13:32:43;;;;;;;0.47;0.40;;;;;;;;;;5085250;28;20078;-57
2021/08/09 13:35:09;;;;;;;0.63;0.40;;;;;;;;;;5087306;28;20039;-57
2021/08/09 13:37:35;;;;;;;0.40;0.40;;;;;;;;;;5086823;28;20039;-56
2021/08/09 13:40:02;;;;;;;0.40;0.40;;;;;;;;;;5067456;28;20060;-57
2021/08/09 13:42:28;;;;;;;0.40;0.40;;;;;;;;;;5067500;28;20515;-57
2021/08/09 13:44:55;;;;;;;0.75;0.45;;;;;;;;;;5074622;28;20027;-57
2021/08/09 13:47:21;;;;;;;1.17;0.45;;;;;;;;;;5085105;28;20505;-57
2021/08/09 13:49:47;;;;;;;0.40;0.40;;;;;;;;;;5087451;28;20157;-56
2021/08/09 13:52:13;;;;;;;0.40;0.40;;;;;;;;;;5086672;28;20542;-57
2021/08/09 13:54:40;;;;;;;0.85;0.50;;;;;;;;;;5085718;28;20016;-56
2021/08/09 13:57:06;;;;;;;0.50;0.50;;;;;;;;;;5069235;28;20028;-57
2021/08/09 13:59:32;;;;;;;0.35;0.35;;;;;;;;;;5084400;28;20506;-56
2021/08/09 14:01:58;;;;;;;0.68;0.60;;;;;;;;;;5086247;28;20036;-55
2021/08/09 14:04:24;;;;;;;0.57;0.55;;;;;;;;;;5086458;28;20077;-55
2021/08/09 14:06:50;;;;;;;0.50;0.40;;;;;;;;;;5098808;28;20028;-56
2021/08/09 14:09:17;;;;;;;0.50;0.50;;;;;;;;;;5087264;28;20475;-57
2021/08/09 14:11:43;;;;;;;0.85;0.40;;;;;;;;;;5085821;28;20028;-55
2021/08/09 14:14:09;;;;;;;0.60;0.60;;;;;;;;;;5085611;28;20457;-56
2021/08/09 14:16:35;;;;;;;0.43;0.43;;;;;;;;;;5069018;28;20052;-55
2021/08/09 14:19:01;;;;;;;0.45;0.45;;;;;;;;;;5084454;28;20089;-57
2021/08/09 14:21:27;;;;;;;0.50;0.50;;;;;;;;;;5085514;28;20032;-55
2021/08/09 14:23:53;;;;;;;0.70;0.55;;;;;;;;;;5086590;28;20376;-56
2021/08/09 14:26:19;;;;;;;0.30;0.30;;;;;;;;;;5087283;28;20026;-56
2021/08/09 14:28:45;;;;;;;0.50;0.50;;;;;;;;;;5087107;28;20032;-56
2021/08/09 14:31:11;;;;;;;0.50;0.47;;;;;;;;;;5089760;28;20621;-56
2021/08/09 14:33:37;;;;;;;0.45;0.45;;;;;;;;;;5089767;28;20096;-57
2021/08/09 14:36:05;;;;;;;0.45;0.30;;;;;;;;;;5088915;28;20036;-55
2021/08/09 14:38:32;;;;;;;0.50;0.50;;;;;;;;;;5088415;28;20047;-56
2021/08/09 14:40:58;;;;;;;0.52;0.43;;;;;;;;;;5087794;28;20031;-55
2021/08/09 14:43:25;;;;;;;0.63;0.50;;;;;;;;;;5081330;28;20403;-56
2021/08/09 14:45:51;;;;;;;0.50;0.50;;;;;;;;;;5072156;28;20381;-55
2021/08/09 14:48:17;;;;;;;0.70;0.50;;;;;;;;;;5072789;28;20027;-56
2021/08/09 14:50:44;;;;;;;0.63;0.60;;;;;;;;;;5077663;28;20063;-56
2021/08/09 14:53:13;;;;;;;0.50;0.50;;;;;;;;;;5081295;28;20113;-56